Time;durP1;ratioP1;P1;durP2;ratioP2;P2;SDS_P1;SDS_P2;PMS_P1;PMS_P2;Temp;Humidity;BMP_temperature;BMP_pressure;BME280_temperature;BME280_humidity;BME280_pressure;Samples;Min_cycle;Max_cycle;Signal;HPM_P1;HPM_P2
2022/06/20 00:00:23;;;;;;;5.25;2.03;;;13.30;99.90;;;;;;5023790;28;20429;-29
2022/06/20 00:02:52;;;;;;;7.88;2.38;;;13.30;99.90;;;;;;5025969;28;20040;-29
2022/06/20 00:05:21;;;;;;;4.63;2.15;;;13.30;99.90;;;;;;5043807;28;20040;-29
2022/06/20 00:07:48;;;;;;;9.02;2.20;;;13.30;99.90;;;;;;5038476;28;20060;-29
2022/06/20 00:10:16;;;;;;;7.57;2.40;;;13.30;99.90;;;;;;5037292;28;20053;-29
2022/06/20 00:12:43;;;;;;;4.45;1.80;;;13.20;99.90;;;;;;5041336;28;20044;-29
2022/06/20 00:15:20;;;;;;;5.60;2.13;;;13.20;99.90;;;;;;5038024;28;20037;-29
2022/06/20 00:17:46;;;;;;;4.30;1.85;;;13.20;99.90;;;;;;5048722;28;20040;-29
2022/06/20 00:20:13;;;;;;;8.27;2.38;;;13.20;99.90;;;;;;5045555;28;20037;-29
2022/06/20 00:22:38;;;;;;;5.32;1.70;;;13.20;99.90;;;;;;5028831;28;20128;-29
2022/06/20 00:25:05;;;;;;;5.90;2.00;;;13.10;99.90;;;;;;5044283;28;20465;-29
2022/06/20 00:27:30;;;;;;;5.78;2.00;;;13.00;99.90;;;;;;5047830;28;20033;-29
2022/06/20 00:29:56;;;;;;;3.35;1.60;;;13.00;99.90;;;;;;5034867;28;20535;-29
2022/06/20 00:32:22;;;;;;;4.85;2.08;;;12.90;99.90;;;;;;5034197;28;20049;-29
2022/06/20 00:34:47;;;;;;;4.85;1.90;;;12.90;99.90;;;;;;5047350;28;20532;-29
2022/06/20 00:37:18;;;;;;;5.38;2.38;;;12.90;99.90;;;;;;5038976;28;20044;-29
2022/06/20 00:39:45;;;;;;;4.35;1.95;;;12.90;99.90;;;;;;5042248;28;20033;-29
2022/06/20 00:42:11;;;;;;;8.43;2.22;;;12.90;99.90;;;;;;5041030;28;20492;-28
2022/06/20 00:44:45;;;;;;;4.38;1.88;;;12.90;99.90;;;;;;5034758;28;20041;-28
2022/06/20 00:47:17;;;;;;;5.38;1.83;;;12.90;99.90;;;;;;5039974;28;20049;-28
2022/06/20 00:49:42;;;;;;;7.85;2.10;;;13.00;99.90;;;;;;5029824;28;20043;-28
2022/06/20 00:52:40;;;;;;;10.25;2.63;;;12.90;99.90;;;;;;5045537;28;20132;-28
2022/06/20 00:55:35;;;;;;;4.97;1.77;;;13.00;99.90;;;;;;5003938;28;20108;-28
2022/06/20 00:58:28;;;;;;;6.32;1.90;;;13.00;99.90;;;;;;5031488;28;20073;-28
2022/06/20 01:00:56;;;;;;;5.57;1.98;;;13.00;99.90;;;;;;5036348;28;20049;-28
2022/06/20 01:03:27;;;;;;;5.03;2.38;;;13.00;99.90;;;;;;5015408;28;20049;-28
2022/06/20 01:05:59;;;;;;;5.93;2.00;;;13.00;99.90;;;;;;5015265;28;20041;-28
2022/06/20 01:08:33;;;;;;;8.55;2.15;;;13.00;99.90;;;;;;5044127;28;20059;-28
2022/06/20 01:11:06;;;;;;;5.00;2.05;;;13.00;99.90;;;;;;5036204;28;20127;-28
2022/06/20 01:13:32;;;;;;;6.32;2.95;;;13.00;99.90;;;;;;5032975;28;20385;-29
2022/06/20 01:16:12;;;;;;;6.63;2.40;;;13.00;99.90;;;;;;5039362;28;20041;-29
2022/06/20 01:18:40;;;;;;;6.03;2.05;;;13.00;99.90;;;;;;5038544;28;20120;-29
2022/06/20 01:21:16;;;;;;;5.85;2.15;;;13.00;99.90;;;;;;5044725;28;20517;-29
2022/06/20 01:23:58;;;;;;;7.43;2.30;;;13.00;99.90;;;;;;5038933;28;20057;-28
2022/06/20 01:26:49;;;;;;;7.25;2.13;;;13.00;99.90;;;;;;5035547;28;20037;-29
2022/06/20 01:29:15;;;;;;;6.22;2.50;;;12.90;99.90;;;;;;5036509;28;20049;-28
2022/06/20 01:31:51;;;;;;;3.97;2.58;;;12.80;99.90;;;;;;5032795;28;20094;-28
2022/06/20 01:34:18;;;;;;;8.15;2.35;;;12.80;99.90;;;;;;5020283;28;20421;-28
2022/06/20 01:39:38;;;;;;;7.15;2.58;;;12.80;99.90;;;;;;5047119;28;21372;-28
2022/06/20 01:42:21;;;;;;;9.25;2.92;;;12.80;99.90;;;;;;5045825;28;20072;-28
2022/06/20 01:45:01;;;;;;;5.03;2.55;;;12.90;99.90;;;;;;5043731;28;20053;-28
2022/06/20 01:47:27;;;;;;;4.43;2.72;;;12.90;99.90;;;;;;5045526;28;20071;-28
2022/06/20 01:49:59;;;;;;;4.88;1.98;;;12.90;99.90;;;;;;5023010;28;20443;-28
2022/06/20 01:52:42;;;;;;;4.75;2.63;;;13.00;99.90;;;;;;5039625;28;20056;-28
2022/06/20 01:55:16;;;;;;;6.50;2.17;;;13.00;99.90;;;;;;5035231;28;20045;-28
2022/06/20 01:57:45;;;;;;;5.40;2.60;;;13.00;99.90;;;;;;5037295;28;20489;-28
2022/06/20 02:00:15;;;;;;;8.43;2.70;;;13.00;99.90;;;;;;5043345;28;20071;-28
2022/06/20 02:02:44;;;;;;;7.88;3.40;;;12.90;99.90;;;;;;5038435;28;20044;-28
2022/06/20 02:05:14;;;;;;;6.20;2.72;;;13.00;99.90;;;;;;5045505;28;20374;-28
2022/06/20 02:07:41;;;;;;;6.18;3.30;;;12.90;99.90;;;;;;5027795;28;20033;-28
2022/06/20 02:10:10;;;;;;;6.55;2.95;;;12.90;99.90;;;;;;5034381;28;20082;-28
2022/06/20 02:12:38;;;;;;;7.40;3.38;;;12.90;99.90;;;;;;5040587;28;20041;-28
2022/06/20 02:15:06;;;;;;;5.97;3.15;;;12.90;99.90;;;;;;5047069;28;20045;-28
2022/06/20 02:17:37;;;;;;;5.65;2.95;;;12.90;99.90;;;;;;5043290;28;20132;-28
2022/06/20 02:20:07;;;;;;;5.35;2.80;;;12.90;99.90;;;;;;5043712;28;20034;-28
2022/06/20 02:22:35;;;;;;;9.18;3.65;;;12.80;99.90;;;;;;5024269;28;20037;-28
2022/06/20 02:25:09;;;;;;;6.07;3.35;;;12.80;99.90;;;;;;5039300;28;20083;-28
2022/06/20 02:27:37;;;;;;;;;;;12.80;99.90;;;;;;5041312;28;20036;-28
2022/06/20 02:30:05;;;;;;;8.82;2.95;;;12.70;99.90;;;;;;5041331;28;19921;-28
2022/06/20 02:32:36;;;;;;;8.63;3.20;;;12.60;99.90;;;;;;5048343;28;20037;-28
2022/06/20 02:35:08;;;;;;;3.53;2.72;;;12.60;99.90;;;;;;5045944;28;20295;-28
2022/06/20 02:37:35;;;;;;;9.27;3.28;;;12.60;99.90;;;;;;5024700;28;20316;-28
2022/06/20 02:40:05;;;;;;;7.95;2.92;;;12.60;99.90;;;;;;5041404;28;20041;-28
2022/06/20 02:42:37;;;;;;;6.55;2.72;;;12.50;99.90;;;;;;5038258;28;20385;-28
2022/06/20 02:45:07;;;;;;;8.98;2.97;;;12.50;99.90;;;;;;5036399;28;20417;-28
2022/06/20 02:47:37;;;;;;;5.47;3.15;;;12.50;99.90;;;;;;5042269;28;20083;-28
2022/06/20 02:50:04;;;;;;;4.10;2.70;;;12.40;99.90;;;;;;5041124;28;20053;-28
2022/06/20 02:53:06;;;;;;;5.75;2.90;;;12.30;99.90;;;;;;5043754;28;20087;-28
2022/06/20 02:55:34;;;;;;;4.43;2.97;;;12.30;99.90;;;;;;5019247;28;20547;-28
2022/06/20 02:58:11;;;;;;;7.05;3.13;;;12.20;99.90;;;;;;5042453;28;20127;-28
2022/06/20 03:00:43;;;;;;;5.05;2.80;;;12.10;99.90;;;;;;5044814;28;20447;-28
2022/06/20 03:03:28;;;;;;;6.72;2.88;;;12.00;99.90;;;;;;5044569;28;20068;-28
2022/06/20 03:05:54;;;;;;;7.15;2.85;;;11.90;99.90;;;;;;5035441;28;20124;-28
2022/06/20 03:08:20;;;;;;;7.32;2.72;;;11.90;99.90;;;;;;5043859;28;20120;-28
2022/06/20 03:10:49;;;;;;;5.95;3.28;;;11.80;99.90;;;;;;5036803;28;20033;-28
2022/06/20 03:13:16;;;;;;;5.43;2.85;;;11.70;99.90;;;;;;5040795;28;20509;-28
2022/06/20 03:15:43;;;;;;;5.50;2.95;;;11.70;99.90;;;;;;5040060;28;20044;-28
2022/06/20 03:18:18;;;;;;;7.80;3.05;;;11.70;99.90;;;;;;5022245;28;20041;-28
2022/06/20 03:20:45;;;;;;;4.75;2.88;;;11.70;99.90;;;;;;5040691;28;20028;-28
2022/06/20 03:23:33;;;;;;;5.45;3.30;;;11.60;99.90;;;;;;5047492;28;20055;-28
2022/06/20 03:26:01;;;;;;;7.40;3.15;;;11.60;99.90;;;;;;5040303;28;20103;-28
2022/06/20 03:28:29;;;;;;;5.82;3.00;;;11.60;99.90;;;;;;5013501;28;20313;-28
2022/06/20 03:30:58;;;;;;;7.43;3.42;;;11.60;99.90;;;;;;5040278;28;20029;-28
2022/06/20 03:33:24;;;;;;;5.68;2.80;;;11.60;99.90;;;;;;5047712;28;20032;-28
2022/06/20 03:35:57;;;;;;;6.47;3.28;;;11.60;99.90;;;;;;5027396;28;20045;-28
2022/06/20 03:38:23;;;;;;;6.00;3.05;;;11.60;99.90;;;;;;5047046;28;20052;-28
2022/06/20 03:40:49;;;;;;;5.80;3.33;;;11.60;99.90;;;;;;5035446;28;20044;-26
2022/06/20 03:43:20;;;;;;;6.40;3.42;;;11.60;99.90;;;;;;5033676;28;20488;-26
2022/06/20 03:45:54;;;;;;;9.80;3.63;;;11.50;99.90;;;;;;5052329;28;20500;-26
2022/06/20 03:48:22;;;;;;;7.63;3.33;;;11.40;99.90;;;;;;5052066;28;20396;-25
2022/06/20 03:51:13;;;;;;;6.07;3.28;;;11.40;99.90;;;;;;5051798;28;20102;-25
2022/06/20 03:53:46;;;;;;;6.82;3.40;;;11.40;99.90;;;;;;5051865;28;20045;-25
2022/06/20 03:56:21;;;;;;;5.35;3.00;;;11.40;99.90;;;;;;5034346;28;20069;-25
2022/06/20 03:59:03;;;;;;;4.07;2.80;;;11.30;99.90;;;;;;5051628;28;20489;-25
2022/06/20 04:01:38;;;;;;;4.63;3.45;;;11.30;99.90;;;;;;5034113;28;20033;-26
2022/06/20 04:04:11;;;;;;;7.57;4.05;;;11.30;99.90;;;;;;5051821;28;20116;-26
2022/06/20 04:06:55;;;;;;;3.97;3.00;;;11.20;99.90;;;;;;5051976;28;20045;-26
2022/06/20 04:12:39;;;;;;;5.60;2.83;;;11.20;99.90;;;;;;5051543;28;19916;-26
2022/06/20 04:15:20;;;;;;;7.57;3.60;;;11.20;99.90;;;;;;5045175;28;20049;-26
2022/06/20 04:18:28;;;;;;;4.35;3.17;;;11.20;99.90;;;;;;5051406;28;20064;-26
2022/06/20 04:21:27;;;;;;;7.18;3.22;;;11.20;99.90;;;;;;5014869;28;20041;-26
2022/06/20 04:24:05;;;;;;;6.47;3.92;;;11.20;99.90;;;;;;5051383;28;20581;-26
2022/06/20 04:26:39;;;;;;;6.22;3.30;;;11.20;99.90;;;;;;5033191;28;20041;-26
2022/06/20 04:29:27;;;;;;;5.32;3.75;;;11.30;99.90;;;;;;5051307;28;20060;-26
2022/06/20 04:31:58;;;;;;;9.20;3.88;;;11.30;99.90;;;;;;5037730;28;20056;-26
2022/06/20 04:34:28;;;;;;;9.30;4.38;;;11.40;99.90;;;;;;5051439;28;20094;-26
2022/06/20 04:37:08;;;;;;;4.50;3.97;;;11.50;99.90;;;;;;5050749;28;20033;-26
2022/06/20 04:39:55;;;;;;;7.00;3.90;;;11.50;99.90;;;;;;5051473;28;20135;-26
2022/06/20 04:42:36;;;;;;;7.25;4.13;;;11.70;99.90;;;;;;5051408;28;20035;-26
2022/06/20 04:45:38;;;;;;;6.57;4.18;;;11.70;99.90;;;;;;5051869;28;20064;-26
2022/06/20 04:48:10;;;;;;;7.00;4.28;;;11.80;99.90;;;;;;5021465;28;20060;-26
2022/06/20 04:50:36;;;;;;;8.77;4.07;;;11.90;99.90;;;;;;5039962;28;20103;-26
2022/06/20 04:53:06;;;;;;;9.35;3.63;;;12.00;99.90;;;;;;5039272;28;20037;-26
2022/06/20 04:55:33;;;;;;;7.07;3.67;;;12.10;99.90;;;;;;5050856;28;20570;-26
2022/06/20 04:58:04;;;;;;;7.65;3.60;;;12.20;99.90;;;;;;5033104;28;20088;-26
2022/06/20 05:00:41;;;;;;;7.43;3.90;;;12.20;99.90;;;;;;5050889;28;20076;-26
2022/06/20 05:03:10;;;;;;;9.88;3.88;;;12.30;99.90;;;;;;5029892;28;20190;-26
2022/06/20 05:05:41;;;;;;;7.30;3.53;;;12.30;99.90;;;;;;5046782;28;20056;-26
2022/06/20 05:08:13;;;;;;;10.10;4.22;;;12.30;99.90;;;;;;5050933;28;20040;-26
2022/06/20 05:10:50;;;;;;;6.03;3.83;;;12.30;99.90;;;;;;5054576;28;20060;-26
2022/06/20 05:13:25;;;;;;;7.03;3.70;;;12.40;99.90;;;;;;5034989;28;20048;-26
2022/06/20 05:15:53;;;;;;;7.78;3.60;;;12.40;99.90;;;;;;5046370;28;20052;-26
2022/06/20 05:18:27;;;;;;;7.93;4.03;;;12.50;99.90;;;;;;5054914;28;20225;-26
2022/06/20 05:20:57;;;;;;;6.82;3.95;;;12.60;99.90;;;;;;5054226;28;20527;-26
2022/06/20 05:23:31;;;;;;;7.03;3.70;;;12.60;99.90;;;;;;5039883;28;20069;-26
2022/06/20 05:26:00;;;;;;;8.10;4.10;;;12.70;99.90;;;;;;5034941;28;20120;-26
2022/06/20 05:28:26;;;;;;;7.57;3.97;;;12.80;99.90;;;;;;5009460;28;20041;-26
2022/06/20 05:30:53;;;;;;;5.82;3.70;;;12.90;99.90;;;;;;5054986;28;20136;-26
2022/06/20 05:33:35;;;;;;;6.90;3.70;;;13.00;99.90;;;;;;5053883;28;20049;-26
2022/06/20 05:36:49;;;;;;;6.03;3.97;;;13.10;99.90;;;;;;5034871;28;20057;-26
2022/06/20 05:39:29;;;;;;;5.72;3.38;;;13.20;99.90;;;;;;4969334;28;20244;-26
2022/06/20 05:41:55;;;;;;;7.85;3.60;;;13.40;99.90;;;;;;5023589;28;20059;-26
2022/06/20 05:44:21;;;;;;;7.82;3.60;;;13.50;99.90;;;;;;5033494;28;20171;-27
2022/06/20 05:47:03;;;;;;;5.50;3.72;;;13.60;99.90;;;;;;5050574;28;20115;-27
2022/06/20 05:49:33;;;;;;;8.88;3.42;;;13.70;99.90;;;;;;5050499;28;20040;-26
2022/06/20 05:52:01;;;;;;;7.18;3.63;;;13.90;99.90;;;;;;5051207;28;20483;-26
2022/06/20 05:54:35;;;;;;;6.80;3.53;;;13.90;99.90;;;;;;5053513;28;20041;-26
2022/06/20 05:57:08;;;;;;;6.53;3.35;;;14.00;99.90;;;;;;5054028;28;20037;-26
2022/06/20 05:59:48;;;;;;;7.22;3.30;;;14.10;99.90;;;;;;5036408;28;20043;-26
2022/06/20 06:02:14;;;;;;;6.65;3.53;;;14.30;99.90;;;;;;5020191;28;20531;-27
2022/06/20 06:05:04;;;;;;;6.88;3.42;;;14.40;99.90;;;;;;5036321;28;20041;-26
2022/06/20 06:07:44;;;;;;;8.75;3.20;;;14.50;99.90;;;;;;5019707;28;20045;-26
2022/06/20 06:10:42;;;;;;;7.55;3.38;;;14.60;99.90;;;;;;5053764;28;20041;-27
2022/06/20 06:13:26;;;;;;;8.88;3.65;;;14.70;99.90;;;;;;5053859;28;20492;-26
2022/06/20 06:19:03;;;;;;;5.68;3.20;;;14.90;99.90;;;;;;5053966;28;20049;-27
2022/06/20 06:21:29;;;;;;;;;;;15.00;99.90;;;;;;5036699;28;20033;-26
2022/06/20 06:23:57;;;;;;;7.88;3.70;;;15.00;99.90;;;;;;5053309;28;19998;-26
2022/06/20 06:26:23;;;;;;;6.93;4.03;;;15.10;99.90;;;;;;5035222;28;20049;-27
2022/06/20 06:28:50;;;;;;;5.57;3.53;;;15.20;99.90;;;;;;5053816;28;20118;-27
2022/06/20 06:31:25;;;;;;;9.30;3.58;;;15.30;99.90;;;;;;5035554;28;20056;-26
2022/06/20 06:33:53;;;;;;;8.30;4.07;;;15.40;99.90;;;;;;5053505;28;20522;-27
2022/06/20 06:36:26;;;;;;;8.57;3.55;;;15.50;99.90;;;;;;5035783;28;20037;-27
2022/06/20 06:39:10;;;;;;;8.20;3.70;;;15.50;99.90;;;;;;5053390;28;20052;-27
2022/06/20 06:41:41;;;;;;;9.10;3.60;;;15.50;99.90;;;;;;5053455;28;20037;-26
2022/06/20 06:44:38;;;;;;;5.93;3.50;;;15.50;99.90;;;;;;5035380;28;20033;-27
2022/06/20 06:47:10;;;;;;;10.82;3.90;;;15.70;99.90;;;;;;5032484;28;20057;-26
2022/06/20 06:49:43;;;;;;;7.85;3.95;;;15.70;99.90;;;;;;5037414;28;20041;-27
2022/06/20 06:52:25;;;;;;;7.28;3.78;;;15.80;99.90;;;;;;5043990;28;20040;-27
2022/06/20 06:54:56;;;;;;;5.90;3.35;;;15.90;99.90;;;;;;5052610;28;20041;-27
2022/06/20 06:57:32;;;;;;;10.43;4.38;;;16.00;99.90;;;;;;5018771;28;20049;-27
2022/06/20 07:00:04;;;;;;;7.68;3.63;;;16.00;99.90;;;;;;5046465;28;20037;-27
2022/06/20 07:02:37;;;;;;;9.13;4.22;;;16.10;99.90;;;;;;5033037;28;20416;-27
2022/06/20 07:05:33;;;;;;;11.03;3.83;;;16.20;99.90;;;;;;5047978;28;20389;-27
2022/06/20 07:08:21;;;;;;;10.90;4.00;;;16.20;99.90;;;;;;5033230;28;20507;-27
2022/06/20 07:11:01;;;;;;;9.50;3.78;;;16.30;99.90;;;;;;5035278;28;20404;-27
2022/06/20 07:13:35;;;;;;;8.30;3.75;;;16.50;99.90;;;;;;5035146;28;20048;-27
2022/06/20 07:16:05;;;;;;;8.55;3.95;;;16.70;99.90;;;;;;5053169;28;20072;-27
2022/06/20 07:18:53;;;;;;;12.70;4.05;;;17.00;99.90;;;;;;5034980;28;20048;-27
2022/06/20 07:21:22;;;;;;;7.55;3.40;;;17.20;99.90;;;;;;5052467;28;20048;-27
2022/06/20 07:23:57;;;;;;;8.90;3.75;;;17.30;99.90;;;;;;5052477;28;20037;-27
2022/06/20 07:26:25;;;;;;;6.50;3.67;;;17.10;99.90;;;;;;5052577;28;20488;-27
2022/06/20 07:28:57;;;;;;;9.65;4.00;;;16.90;99.90;;;;;;5029672;28;20048;-27
2022/06/20 07:31:31;;;;;;;9.27;3.58;;;17.00;99.90;;;;;;5050883;28;20041;-27
2022/06/20 07:34:24;;;;;;;9.52;4.15;;;17.20;99.90;;;;;;5066275;28;20495;-27
2022/06/20 07:36:57;;;;;;;6.60;3.90;;;17.50;99.90;;;;;;5004648;28;20505;-28
2022/06/20 07:39:30;;;;;;;6.00;3.13;;;17.70;99.90;;;;;;5032317;28;20045;-26
2022/06/20 07:42:09;;;;;;;8.20;3.30;;;17.90;99.90;;;;;;5010095;28;20044;-27
2022/06/20 07:44:44;;;;;;;5.57;2.60;;;18.10;99.90;;;;;;5052564;28;20047;-27
2022/06/20 07:47:18;;;;;;;6.70;3.00;;;18.20;99.90;;;;;;5053024;28;20044;-27
2022/06/20 07:49:54;;;;;;;8.45;3.28;;;18.10;99.90;;;;;;5072595;28;20400;-27
2022/06/20 07:52:34;;;;;;;3.80;2.70;;;17.90;99.90;;;;;;5050049;28;20518;-27
2022/06/20 07:55:10;;;;;;;4.60;2.55;;;17.80;99.90;;;;;;5051312;28;20045;-27
2022/06/20 07:57:40;;;;;;;7.38;2.65;;;17.70;99.90;;;;;;5051878;28;20033;-28
2022/06/20 08:00:09;;;;;;;3.70;2.67;;;17.60;99.90;;;;;;5052097;28;20480;-27
2022/06/20 08:02:41;;;;;;;6.22;3.60;;;17.60;99.90;;;;;;5044292;28;20400;-27
2022/06/20 08:05:12;;;;;;;5.65;2.70;;;17.70;99.90;;;;;;5052011;28;20045;-27
2022/06/20 08:07:56;;;;;;;7.60;3.15;;;18.10;99.90;;;;;;5051695;28;20486;-27
2022/06/20 08:10:30;;;;;;;8.23;2.67;;;18.40;99.90;;;;;;5050057;28;20044;-28
2022/06/20 08:13:04;;;;;;;5.70;2.80;;;18.60;99.90;;;;;;5032104;28;20554;-25
2022/06/20 08:15:50;;;;;;;6.45;2.53;;;18.80;99.90;;;;;;5051161;28;20053;-28
2022/06/20 08:18:16;;;;;;;6.90;3.03;;;19.00;99.90;;;;;;5052317;28;20037;-28
2022/06/20 08:20:45;;;;;;;4.05;2.60;;;19.10;99.90;;;;;;5046938;28;20037;-28
2022/06/20 08:23:20;;;;;;;4.88;2.80;;;18.80;99.90;;;;;;5032514;28;20114;-28
2022/06/20 08:25:55;;;;;;;4.78;2.92;;;18.60;99.90;;;;;;5051711;28;20033;-28
2022/06/20 08:28:27;;;;;;;5.38;3.10;;;18.60;99.90;;;;;;5030233;28;20124;-27
2022/06/20 08:30:59;;;;;;;6.65;3.03;;;18.90;99.90;;;;;;5012234;28;20185;-28
2022/06/20 08:33:56;;;;;;;5.35;2.28;;;19.10;99.20;;;;;;5051984;28;20087;-28
2022/06/20 08:36:37;;;;;;;5.80;2.65;;;19.30;95.50;;;;;;5051713;28;20045;-28
2022/06/20 08:39:16;;;;;;;5.82;2.58;;;19.70;96.90;;;;;;5051771;28;20041;-28
2022/06/20 08:42:16;;;;;;;6.35;2.30;;;20.20;90.80;;;;;;5051847;28;20048;-27
2022/06/20 08:45:11;;;;;;;5.00;2.00;;;20.20;90.20;;;;;;4996191;28;20053;-29
2022/06/20 08:47:58;;;;;;;5.28;2.53;;;20.40;91.60;;;;;;5041194;28;20045;-29
2022/06/20 08:50:49;;;;;;;6.07;2.42;;;20.30;92.20;;;;;;5053626;28;20507;-29
2022/06/20 08:53:27;;;;;;;6.22;2.53;;;19.80;90.60;;;;;;5046246;28;20033;-29
2022/06/20 08:56:12;;;;;;;5.18;2.50;;;19.50;94.30;;;;;;5045277;28;20048;-29
2022/06/20 08:58:56;;;;;;;8.10;2.92;;;19.50;93.00;;;;;;5039560;28;20044;-29
2022/06/20 09:01:28;;;;;;;7.15;2.95;;;19.60;91.70;;;;;;5043878;28;20042;-29
2022/06/20 09:04:32;;;;;;;7.80;3.00;;;19.60;96.00;;;;;;5043945;28;20099;-29
2022/06/20 09:07:00;;;;;;;6.07;2.88;;;19.70;95.40;;;;;;5044444;28;20050;-29
2022/06/20 09:09:51;;;;;;;5.38;2.50;;;20.00;95.40;;;;;;5031280;28;21273;-29
2022/06/20 09:12:38;;;;;;;5.47;2.15;;;20.00;83.80;;;;;;5029029;28;20083;-29
2022/06/20 09:15:38;;;;;;;4.70;2.30;;;20.20;86.00;;;;;;5044752;28;20329;-29
2022/06/20 09:18:19;;;;;;;3.42;2.05;;;20.60;86.80;;;;;;5018422;28;20044;-29
2022/06/20 09:20:55;;;;;;;6.60;2.67;;;20.70;80.40;;;;;;5044059;28;20036;-29
2022/06/20 09:23:27;;;;;;;5.05;2.30;;;20.70;80.90;;;;;;5028516;28;20036;-29
2022/06/20 09:26:03;;;;;;;7.25;2.47;;;20.60;89.80;;;;;;5046353;28;20081;-29
2022/06/20 09:28:50;;;;;;;5.20;2.22;;;20.50;90.30;;;;;;5053512;28;20276;-27
2022/06/20 09:31:29;;;;;;;4.55;2.25;;;21.00;90.80;;;;;;5050930;28;20553;-27
2022/06/20 09:34:19;;;;;;;5.78;2.25;;;21.30;92.50;;;;;;5055082;28;20471;-28
2022/06/20 09:37:22;;;;;;;6.40;2.45;;;21.60;87.20;;;;;;5037123;28;20511;-28
2022/06/20 09:40:06;;;;;;;4.28;2.08;;;21.80;81.80;;;;;;5054714;28;20041;-27
2022/06/20 09:43:07;;;;;;;6.20;1.80;;;21.50;80.50;;;;;;5035048;28;20041;-28
2022/06/20 09:45:44;;;;;;;3.53;2.00;;;21.40;74.20;;;;;;5021432;28;20061;-27
2022/06/20 09:48:31;;;;;;;6.18;1.80;;;21.70;83.20;;;;;;5043362;28;20045;-27
2022/06/20 09:51:13;;;;;;;3.63;1.40;;;21.40;78.10;;;;;;5046128;28;20045;-27
2022/06/20 09:54:09;;;;;;;2.22;1.20;;;21.30;71.70;;;;;;5034946;28;20136;-28
2022/06/20 09:56:41;;;;;;;4.63;1.52;;;21.60;71.70;;;;;;5033961;28;20057;-28
2022/06/20 09:59:35;;;;;;;3.30;1.58;;;21.60;72.60;;;;;;5034718;28;20052;-28
2022/06/20 10:02:06;;;;;;;3.47;1.73;;;21.30;65.20;;;;;;5054358;28;20041;-28
2022/06/20 10:04:44;;;;;;;2.33;1.20;;;21.00;75.90;;;;;;5054041;28;20069;-27
2022/06/20 10:07:22;;;;;;;3.70;1.50;;;21.10;76.10;;;;;;5054034;28;20056;-28
2022/06/20 10:09:57;;;;;;;2.25;1.60;;;21.30;74.30;;;;;;5035952;28;20036;-28
2022/06/20 10:12:48;;;;;;;4.03;1.65;;;21.50;74.10;;;;;;5054179;28;20045;-28
2022/06/20 10:15:25;;;;;;;2.72;1.50;;;21.60;67.60;;;;;;5019963;28;20364;-30
2022/06/20 10:18:08;;;;;;;4.30;1.70;;;21.50;66.30;;;;;;5025434;28;20041;-30
2022/06/20 10:20:52;;;;;;;6.20;2.00;;;21.20;68.40;;;;;;5040173;28;20107;-30
2022/06/20 10:23:39;;;;;;;2.45;1.83;;;21.10;68.90;;;;;;5004975;28;20558;-30
2022/06/20 10:26:27;;;;;;;7.57;2.08;;;20.90;68.90;;;;;;5044883;28;20485;-30
2022/06/20 10:29:23;;;;;;;5.07;1.75;;;20.90;77.30;;;;;;5039267;28;20136;-30
2022/06/20 10:32:19;;;;;;;5.38;2.13;;;21.30;80.30;;;;;;5019438;28;20074;-30
2022/06/20 10:35:12;;;;;;;5.05;1.95;;;21.50;74.30;;;;;;5044654;28;20048;-30
2022/06/20 10:37:55;;;;;;;6.53;2.00;;;21.40;69.10;;;;;;5042805;28;20048;-30
2022/06/20 10:40:38;;;;;;;8.85;2.33;;;21.40;77.40;;;;;;5046072;28;20034;-30
2022/06/20 10:43:35;;;;;;;4.83;1.90;;;21.90;75.30;;;;;;5025530;28;20175;-30
2022/06/20 10:46:10;;;;;;;2.97;1.55;;;22.50;70.40;;;;;;5040375;28;20056;-30
2022/06/20 10:49:10;;;;;;;2.47;1.58;;;22.60;68.40;;;;;;5039536;28;20045;-29
2022/06/20 10:52:15;;;;;;;3.50;1.77;;;22.30;61.60;;;;;;5044912;28;20041;-29
2022/06/20 10:55:21;;;;;;;4.88;1.70;;;22.00;58.50;;;;;;5040937;28;20381;-29
2022/06/20 10:58:11;;;;;;;4.35;1.80;;;21.80;60.70;;;;;;5035812;28;20037;-29
2022/06/20 11:00:42;;;;;;;3.67;1.77;;;21.50;58.90;;;;;;5040059;28;20067;-29
2022/06/20 11:03:40;;;;;;;5.05;2.15;;;21.00;63.40;;;;;;5011972;28;20077;-29
2022/06/20 11:06:16;;;;;;;5.55;2.15;;;20.90;68.70;;;;;;5044775;28;20065;-29
2022/06/20 11:08:48;;;;;;;5.22;1.75;;;21.00;68.80;;;;;;5040907;28;20040;-29
2022/06/20 11:11:41;;;;;;;5.07;2.05;;;20.80;71.40;;;;;;5030737;28;20045;-29
2022/06/20 11:14:28;;;;;;;4.30;1.98;;;21.20;80.70;;;;;;5044953;28;20124;-29
2022/06/20 11:17:07;;;;;;;7.00;2.05;;;22.00;74.80;;;;;;5041866;28;20029;-29
2022/06/20 11:20:24;;;;;;;3.30;1.90;;;22.40;66.90;;;;;;5049861;28;20041;-30
2022/06/20 11:23:11;;;;;;;3.45;1.80;;;22.70;67.60;;;;;;5036352;28;20068;-30
2022/06/20 11:26:09;;;;;;;3.45;1.50;;;23.30;67.90;;;;;;5041020;28;20048;-30
2022/06/20 11:28:50;;;;;;;4.10;1.70;;;23.20;56.90;;;;;;5034124;28;20063;-29
2022/06/20 11:31:30;;;;;;;5.75;1.85;;;22.90;59.00;;;;;;5042442;28;20044;-29
2022/06/20 11:34:33;;;;;;;3.47;1.60;;;22.90;56.70;;;;;;5032672;28;20493;-29
2022/06/20 11:37:07;;;;;;;3.58;1.40;;;23.20;53.00;;;;;;5013441;28;20444;-30
2022/06/20 11:40:17;;;;;;;2.35;1.30;;;23.30;55.70;;;;;;5039123;28;20048;-30
2022/06/20 11:42:49;;;;;;;2.65;1.50;;;23.70;52.80;;;;;;5028123;28;20045;-30
2022/06/20 11:45:53;;;;;;;3.72;1.25;;;23.80;51.40;;;;;;5042068;28;20036;-30
2022/06/20 11:49:00;;;;;;;3.38;1.35;;;23.80;49.30;;;;;;5040884;28;20033;-30
2022/06/20 11:51:51;;;;;;;3.88;1.45;;;24.10;52.20;;;;;;4945796;28;20047;-30
2022/06/20 11:54:32;;;;;;;4.18;1.75;;;24.80;51.40;;;;;;5021313;28;20517;-29
2022/06/20 11:57:13;;;;;;;4.72;1.67;;;24.60;49.40;;;;;;5034819;28;20087;-30
2022/06/20 11:59:47;;;;;;;2.92;1.65;;;24.70;50.40;;;;;;5039704;28;20094;-30
2022/06/20 12:02:51;;;;;;;3.33;1.85;;;24.70;49.00;;;;;;5027322;28;20037;-30
2022/06/20 12:05:31;;;;;;;3.80;1.70;;;24.50;50.60;;;;;;5037374;28;20463;-30
2022/06/20 12:08:33;;;;;;;3.13;1.63;;;24.80;50.40;;;;;;5039589;28;20098;-30
2022/06/20 12:11:15;;;;;;;3.38;1.58;;;25.20;50.60;;;;;;5025276;28;20080;-30
2022/06/20 12:13:50;;;;;;;2.92;1.60;;;25.60;46.90;;;;;;5039931;28;20037;-30
2022/06/20 12:16:35;;;;;;;3.75;1.60;;;25.60;47.70;;;;;;5037750;28;20082;-31
2022/06/20 12:25:01;;;;;;;2.95;1.60;;;25.20;46.50;;;;;;5035648;28;20053;-30
2022/06/20 12:27:28;;;;;;;5.60;1.98;;;24.60;47.00;;;;;;5019748;28;20187;-31
2022/06/20 12:29:54;;;;;;;3.17;1.70;;;24.50;47.70;;;;;;5034294;28;20033;-31
2022/06/20 12:32:25;;;;;;;3.40;1.42;;;24.30;47.00;;;;;;5040062;28;20052;-28
2022/06/20 12:35:15;;;;;;;7.75;1.90;;;24.40;47.60;;;;;;5043140;28;20041;-29
2022/06/20 12:38:04;;;;;;;5.60;1.83;;;24.10;48.00;;;;;;5022576;28;20392;-29
2022/06/20 12:40:41;;;;;;;5.68;2.22;;;23.60;50.20;;;;;;5023660;28;20048;-29
2022/06/20 12:43:12;;;;;;;5.05;1.92;;;23.80;51.30;;;;;;5022166;28;20382;-29
2022/06/20 12:45:58;;;;;;;3.83;1.73;;;24.10;50.10;;;;;;5037067;28;20095;-30
2022/06/20 12:49:08;;;;;;;3.72;1.45;;;24.60;49.70;;;;;;5025814;28;20038;-30
2022/06/20 12:51:52;;;;;;;4.15;1.83;;;24.60;48.60;;;;;;5042103;28;20086;-30
2022/06/20 12:54:42;;;;;;;4.90;1.40;;;24.80;48.10;;;;;;5038035;28;20091;-30
2022/06/20 12:57:11;;;;;;;3.83;1.90;;;25.20;47.40;;;;;;5041029;28;20095;-29
2022/06/20 12:59:43;;;;;;;4.53;1.73;;;25.40;46.80;;;;;;5035901;28;20116;-29
2022/06/20 13:02:31;;;;;;;4.10;1.25;;;25.30;46.50;;;;;;5002499;28;20128;-30
2022/06/20 13:05:03;;;;;;;3.85;1.60;;;24.70;46.80;;;;;;5037449;28;20038;-30
2022/06/20 13:07:29;;;;;;;2.65;1.63;;;24.00;47.40;;;;;;5040009;28;20504;-29
2022/06/20 13:10:06;;;;;;;2.95;1.60;;;23.60;48.00;;;;;;5039584;28;20077;-29
2022/06/20 13:12:32;;;;;;;2.88;1.70;;;23.10;49.20;;;;;;5036832;28;20041;-29
2022/06/20 13:15:16;;;;;;;5.38;2.05;;;22.70;50.80;;;;;;5021812;28;20052;-29
2022/06/20 13:18:00;;;;;;;6.03;2.35;;;22.40;52.80;;;;;;5036062;28;20503;-30
2022/06/20 13:20:50;;;;;;;3.55;1.90;;;22.30;54.90;;;;;;5038032;28;20029;-30
2022/06/20 13:23:28;;;;;;;2.97;1.90;;;22.50;54.80;;;;;;5044375;28;20038;-30
2022/06/20 13:26:15;;;;;;;4.78;1.75;;;22.60;54.50;;;;;;5040009;28;20091;-30
2022/06/20 13:28:52;;;;;;;6.22;2.00;;;23.10;54.00;;;;;;5039617;28;20040;-30
2022/06/20 13:31:26;;;;;;;3.25;1.60;;;24.00;54.40;;;;;;5048721;28;20048;-30
2022/06/20 13:34:11;;;;;;;4.75;2.10;;;24.30;50.50;;;;;;5049808;28;20129;-30
2022/06/20 13:36:58;;;;;;;2.95;1.55;;;24.00;50.20;;;;;;5041236;28;20411;-30
2022/06/20 13:39:36;;;;;;;2.63;1.58;;;24.00;49.70;;;;;;5052953;28;20052;-30
2022/06/20 13:42:25;;;;;;;4.15;1.63;;;24.40;50.60;;;;;;5053363;28;20041;-31
2022/06/20 13:45:18;;;;;;;2.70;1.52;;;23.90;48.20;;;;;;5042394;28;20501;-29
2022/06/20 13:48:04;;;;;;;5.65;1.50;;;23.30;49.60;;;;;;5046792;28;20037;-30
2022/06/20 13:50:40;;;;;;;3.38;1.67;;;22.90;51.40;;;;;;5028209;28;20041;-29
2022/06/20 13:53:08;;;;;;;2.80;1.77;;;23.40;53.10;;;;;;5052203;28;20040;-29
2022/06/20 13:55:55;;;;;;;1.85;1.60;;;24.00;52.50;;;;;;5045118;28;20045;-30
2022/06/20 13:58:27;;;;;;;3.30;1.75;;;24.10;50.40;;;;;;5052242;28;20521;-30